createdAt,value
2018-02-24T00:00:34.691Z,98856.02
2018-02-24T00:03:02.109Z,98849.27
2018-02-24T00:05:29.524Z,98850.55
2018-02-24T00:07:56.944Z,98859.66
2018-02-24T00:10:24.358Z,98859.96
2018-02-24T00:12:51.784Z,98858.36
2018-02-24T00:15:19.189Z,98853.71
2018-02-24T00:17:46.615Z,98857.48
2018-02-24T00:20:14.019Z,98858.41
2018-02-24T00:22:44.137Z,98850.64
2018-02-24T00:25:11.549Z,98847.77
2018-02-24T00:27:38.969Z,98845.63
2018-02-24T00:30:06.382Z,98850.91
2018-02-24T00:32:33.805Z,98853.87
2018-02-24T00:35:01.217Z,98853.02
2018-02-24T00:37:28.639Z,98853.38
2018-02-24T00:39:56.044Z,98857.32
2018-02-24T00:42:23.477Z,98860.34
2018-02-24T00:44:50.889Z,98856.23
2018-02-24T00:47:18.300Z,98859.35
2018-02-24T00:49:45.724Z,98862.06
2018-02-24T00:52:14.040Z,98862.57
2018-02-24T00:54:41.460Z,98865.20
2018-02-24T00:57:08.861Z,98868.09
2018-02-24T00:59:36.288Z,98870.98
2018-02-24T01:02:03.700Z,98872.03
2018-02-24T01:04:31.121Z,98874.66
2018-02-24T01:06:58.553Z,98871.95
2018-02-24T01:09:25.976Z,98875.71
2018-02-24T01:11:53.375Z,98880.69
2018-02-24T01:14:20.798Z,98885.91
2018-02-24T01:16:48.209Z,98877.02
2018-02-24T01:19:15.632Z,98879.52
2018-02-24T01:21:43.041Z,98883.06
2018-02-24T01:24:10.461Z,98876.92
2018-02-24T01:26:37.885Z,98881.34
2018-02-24T01:29:05.305Z,98885.15
2018-02-24T01:31:32.717Z,98880.97
2018-02-24T01:34:00.144Z,98866.36
2018-02-24T01:36:27.554Z,98873.17
2018-02-24T01:38:54.975Z,98876.35
2018-02-24T01:41:22.397Z,98878.56
2018-02-24T01:43:49.819Z,98874.81
2018-02-24T01:46:17.229Z,98868.75
2018-02-24T01:48:44.649Z,98868.81
2018-02-24T01:51:12.064Z,98877.88
2018-02-24T01:53:39.485Z,98874.14
2018-02-24T01:56:06.906Z,98877.63
2018-02-24T01:58:34.325Z,98873.83
2018-02-24T02:01:01.738Z,98869.09
2018-02-24T02:03:29.155Z,98868.03
2018-02-24T02:05:56.564Z,98875.39
2018-02-24T02:08:23.979Z,98869.06
2018-02-24T02:10:51.392Z,98872.51
2018-02-24T02:13:18.808Z,98860.58
2018-02-24T02:15:46.228Z,98863.91
2018-02-24T02:18:13.628Z,98866.23
2018-02-24T02:20:41.053Z,98861.62
2018-02-24T02:23:08.461Z,98860.48
2018-02-24T02:25:35.889Z,98862.33
2018-02-24T02:28:03.292Z,98864.47
2018-02-24T02:30:30.705Z,98869.09
2018-02-24T02:32:58.121Z,98869.20
2018-02-24T02:35:25.545Z,98867.59
2018-02-24T02:37:52.945Z,98874.14
2018-02-24T02:40:20.372Z,98865.83
2018-02-24T02:42:47.789Z,98870.65
2018-02-24T02:45:15.219Z,98867.06
2018-02-24T02:47:42.640Z,98869.78
2018-02-24T02:50:10.055Z,98869.85
2018-02-24T02:52:37.468Z,98875.05
2018-02-24T02:55:04.889Z,98872.53
2018-02-24T02:57:32.302Z,98867.95
2018-02-24T02:59:59.725Z,98875.41
2018-02-24T03:02:27.130Z,98879.47
2018-02-24T03:04:54.551Z,98872.13
2018-02-24T03:07:21.969Z,98878.47
2018-02-24T03:09:49.381Z,98869.13
2018-02-24T03:12:16.789Z,98877.86
2018-02-24T03:14:44.208Z,98875.77
2018-02-24T03:17:11.632Z,98885.78
2018-02-24T03:19:39.049Z,98887.27
2018-02-24T03:22:06.460Z,98877.03
2018-02-24T03:24:33.887Z,98880.88
2018-02-24T03:27:01.300Z,98885.98
2018-02-24T03:29:28.712Z,98886.93
2018-02-24T03:31:56.122Z,98887.22
2018-02-24T03:34:23.551Z,98879.66
2018-02-24T03:36:51.522Z,98884.98
2018-02-24T03:39:18.927Z,98884.99
2018-02-24T03:41:46.345Z,98890.18
2018-02-24T03:44:13.773Z,98889.33
2018-02-24T03:46:41.176Z,98889.75
2018-02-24T03:49:08.607Z,98893.33
2018-02-24T03:51:36.014Z,98892.17
2018-02-24T03:54:03.416Z,98893.70
2018-02-24T03:56:30.846Z,98899.77
2018-02-24T03:58:58.252Z,98894.23
2018-02-24T04:01:25.674Z,98899.70
2018-02-24T04:03:53.170Z,98903.13
2018-02-24T04:06:20.584Z,98902.75
2018-02-24T04:08:47.998Z,98903.52
2018-02-24T04:11:15.418Z,98919.60
2018-02-24T04:13:42.825Z,98918.78
2018-02-24T04:16:10.253Z,98925.22
2018-02-24T04:18:37.670Z,98910.78
2018-02-24T04:21:05.088Z,98921.45
2018-02-24T04:23:32.500Z,98919.64
2018-02-24T04:25:59.920Z,98921.88
2018-02-24T04:28:27.320Z,98926.25
2018-02-24T04:30:54.744Z,98921.06
2018-02-24T04:33:22.150Z,98916.02
2018-02-24T04:35:49.573Z,98914.00
2018-02-24T04:38:16.980Z,98913.57
2018-02-24T04:40:44.397Z,98918.58
2018-02-24T04:43:11.821Z,98931.99
2018-02-24T04:45:39.236Z,98938.12
2018-02-24T04:48:06.665Z,98942.45
2018-02-24T04:50:34.086Z,98937.88
2018-02-24T04:53:01.499Z,98934.36
2018-02-24T04:55:28.936Z,98932.30
2018-02-24T04:57:56.345Z,98933.45
2018-02-24T05:00:24.707Z,98926.81
2018-02-24T05:02:52.118Z,98924.76
2018-02-24T05:05:19.538Z,98930.92
2018-02-24T05:07:46.951Z,98930.66
2018-02-24T05:10:14.390Z,98933.06
2018-02-24T05:12:41.793Z,98938.33
2018-02-24T05:15:09.212Z,98930.70
2018-02-24T05:17:36.632Z,98939.42
2018-02-24T05:20:04.045Z,98940.24
2018-02-24T05:22:31.459Z,98950.95
2018-02-24T05:24:58.874Z,98950.40
2018-02-24T05:27:26.284Z,98943.08
2018-02-24T05:29:53.705Z,98944.70
2018-02-24T05:32:21.116Z,98949.94
2018-02-24T05:34:48.525Z,98946.16
2018-02-24T05:37:15.946Z,98953.12
2018-02-24T05:42:17.149Z,98955.92
2018-02-24T05:44:44.553Z,98961.06
2018-02-24T05:47:11.978Z,98957.55
2018-02-24T05:49:39.389Z,98962.27
2018-02-24T05:52:06.808Z,98969.63
2018-02-24T05:54:34.225Z,98972.86
2018-02-24T05:57:01.638Z,98973.22
2018-02-24T05:59:29.048Z,98975.23
2018-02-24T06:01:56.469Z,98981.15
2018-02-24T06:04:23.889Z,98981.89
2018-02-24T06:06:51.313Z,98980.64
2018-02-24T06:09:18.715Z,98988.81
2018-02-24T06:11:46.141Z,98991.89
2018-02-24T06:14:13.553Z,98991.42
2018-02-24T06:16:40.979Z,98993.99
2018-02-24T06:19:08.392Z,98985.16
2018-02-24T06:21:35.816Z,99001.81
2018-02-24T06:24:03.220Z,99003.88
2018-02-24T06:26:30.646Z,99013.48
2018-02-24T06:28:58.065Z,99017.83
2018-02-24T06:31:25.485Z,99019.15
2018-02-24T06:33:52.906Z,99022.50
2018-02-24T06:36:20.323Z,99018.22
2018-02-24T06:38:47.732Z,99018.76
2018-02-24T06:41:15.145Z,99020.01
2018-02-24T06:43:42.570Z,99020.00
2018-02-24T06:46:09.991Z,99018.30
2018-02-24T06:48:37.402Z,99028.95
2018-02-24T06:51:04.821Z,99029.38
2018-02-24T06:56:06.128Z,99040.09
2018-02-24T06:58:33.548Z,99037.02
2018-02-24T07:01:00.973Z,99040.34
2018-02-24T07:03:28.386Z,99039.05
2018-02-24T07:05:55.801Z,99048.83
2018-02-24T07:08:23.228Z,99046.19
2018-02-24T07:10:50.642Z,99046.19
2018-02-24T07:13:18.061Z,99049.89
2018-02-24T07:15:45.474Z,99049.11
2018-02-24T07:18:12.888Z,99047.32
2018-02-24T07:20:40.297Z,99052.85
2018-02-24T07:23:07.722Z,99056.56
2018-02-24T07:25:35.129Z,99049.13
2018-02-24T07:28:02.537Z,99067.61
2018-02-24T07:30:29.963Z,99057.19
2018-02-24T07:32:57.382Z,99063.14
2018-02-24T07:35:24.792Z,99059.61
2018-02-24T07:37:52.209Z,99057.00
2018-02-24T07:40:19.622Z,99057.34
2018-02-24T07:42:47.036Z,99060.58
2018-02-24T07:45:14.449Z,99060.38
2018-02-24T07:47:41.882Z,99061.59
2018-02-24T07:50:09.288Z,99064.03
2018-02-24T07:52:36.713Z,99076.13
2018-02-24T07:55:04.124Z,99072.67
2018-02-24T07:57:31.542Z,99077.73
2018-02-24T07:59:58.976Z,99078.70
2018-02-24T08:02:26.404Z,99075.33
2018-02-24T08:04:53.826Z,99071.77
2018-02-24T08:07:21.241Z,99074.17
2018-02-24T08:09:48.655Z,99081.89
2018-02-24T08:12:16.065Z,99068.84
2018-02-24T08:14:43.479Z,99071.84
2018-02-24T08:17:10.897Z,99079.13
2018-02-24T08:19:38.310Z,99089.38
2018-02-24T08:22:05.738Z,99079.37
2018-02-24T08:24:33.137Z,99073.88
2018-02-24T08:27:00.984Z,99079.58
2018-02-24T08:29:28.397Z,99083.67
2018-02-24T08:31:55.841Z,99088.20
2018-02-24T08:34:23.261Z,99083.48
2018-02-24T08:36:50.678Z,99089.97
2018-02-24T08:39:18.099Z,99094.25
2018-02-24T08:41:45.513Z,99082.47
2018-02-24T08:44:12.931Z,99080.66
2018-02-24T08:46:40.342Z,99086.84
2018-02-24T08:49:07.760Z,99090.66
2018-02-24T08:51:35.185Z,99083.98
2018-02-24T08:54:02.616Z,99086.80
2018-02-24T08:56:30.027Z,99086.40
2018-02-24T08:58:57.451Z,99088.56
2018-02-24T09:01:24.871Z,99096.45
2018-02-24T09:03:52.290Z,99084.95
2018-02-24T09:06:19.695Z,99089.69
2018-02-24T09:08:47.119Z,99086.16
2018-02-24T09:11:14.540Z,99085.61
2018-02-24T09:13:41.955Z,99076.47
2018-02-24T09:16:09.369Z,99076.77
2018-02-24T09:18:37.050Z,99080.72
2018-02-24T09:21:04.469Z,99080.01
2018-02-24T09:23:32.933Z,99077.61
2018-02-24T09:26:00.341Z,99079.53
2018-02-24T09:28:27.757Z,99080.03
2018-02-24T09:30:55.173Z,99080.48
2018-02-24T09:33:22.599Z,99077.58
2018-02-24T09:35:50.009Z,99073.53
2018-02-24T09:38:17.429Z,99070.65
2018-02-24T09:40:44.842Z,99078.53
2018-02-24T09:43:12.258Z,99084.43
2018-02-24T09:45:39.669Z,99081.97
2018-02-24T09:48:07.088Z,99078.52
2018-02-24T09:50:34.510Z,99079.80
2018-02-24T09:53:01.917Z,99079.64
2018-02-24T09:55:29.316Z,99076.23
2018-02-24T09:57:56.747Z,99062.83
2018-02-24T10:00:24.148Z,99064.38
2018-02-24T10:02:51.564Z,99064.98
2018-02-24T10:05:18.968Z,99071.27
2018-02-24T10:07:46.392Z,99064.36
2018-02-24T10:10:13.793Z,99066.30
2018-02-24T10:12:41.197Z,99055.23
2018-02-24T10:15:08.618Z,99061.11
2018-02-24T10:17:36.022Z,99055.27
2018-02-24T10:20:03.440Z,99059.59
2018-02-24T10:22:30.844Z,99060.89
2018-02-24T10:24:58.315Z,99068.98
2018-02-24T10:27:25.681Z,99062.61
2018-02-24T10:29:53.102Z,99065.46
2018-02-24T10:32:20.506Z,99068.23
2018-02-24T10:34:47.928Z,99058.80
2018-02-24T10:37:15.350Z,99061.43
2018-02-24T10:39:42.765Z,99060.71
2018-02-24T10:42:10.174Z,99055.88
2018-02-24T10:44:37.590Z,99053.60
2018-02-24T10:47:05.004Z,99047.45
2018-02-24T10:49:32.409Z,99047.13
2018-02-24T10:51:59.816Z,99054.88
2018-02-24T10:54:27.238Z,99040.09
2018-02-24T10:56:54.636Z,99037.58
2018-02-24T10:59:22.061Z,99040.22
2018-02-24T11:01:49.469Z,99042.52
2018-02-24T11:04:16.888Z,99037.98
2018-02-24T11:06:44.299Z,99040.55
2018-02-24T11:09:11.713Z,99036.66
2018-02-24T11:11:39.121Z,99027.20
2018-02-24T11:14:07.393Z,99024.53
2018-02-24T11:16:34.797Z,99025.28
2018-02-24T11:19:02.218Z,99017.22
2018-02-24T11:21:29.616Z,99018.56
2018-02-24T11:23:57.033Z,99021.22
2018-02-24T11:26:24.433Z,99010.91
2018-02-24T11:28:51.859Z,99006.69
2018-02-24T11:31:19.293Z,99009.75
2018-02-24T11:33:46.697Z,99009.25
2018-02-24T11:36:14.095Z,99001.85
2018-02-24T11:38:41.502Z,99005.23
2018-02-24T11:41:08.914Z,99000.46
2018-02-24T11:43:36.335Z,99003.84
2018-02-24T11:46:03.743Z,98994.91
2018-02-24T11:48:31.152Z,99000.16
2018-02-24T11:50:58.571Z,98996.15
2018-02-24T11:53:25.969Z,99001.06
2018-02-24T11:55:53.385Z,98995.13
2018-02-24T11:58:20.793Z,99000.67
2018-02-24T12:00:48.205Z,98992.84
2018-02-24T12:03:15.614Z,99002.72
2018-02-24T12:05:43.037Z,98986.55
2018-02-24T12:08:10.432Z,98983.30
2018-02-24T12:10:37.848Z,98975.23
2018-02-24T12:13:05.261Z,98984.31
2018-02-24T12:15:32.668Z,98983.74
2018-02-24T12:18:00.091Z,98980.16
2018-02-24T12:20:27.502Z,98973.44
2018-02-24T12:22:54.906Z,98976.62
2018-02-24T12:25:22.328Z,98978.70
2018-02-24T12:27:49.742Z,98977.70
2018-02-24T12:30:17.153Z,98964.92
2018-02-24T12:32:44.558Z,98964.80
2018-02-24T12:35:11.975Z,98958.15
2018-02-24T12:37:39.382Z,98955.88
2018-02-24T12:40:06.805Z,98954.02
2018-02-24T12:42:34.205Z,98945.70
2018-02-24T12:45:01.633Z,98939.83
2018-02-24T12:47:29.033Z,98944.74
2018-02-24T12:49:56.661Z,98947.70
2018-02-24T12:52:23.862Z,98943.69
2018-02-24T12:54:51.282Z,98947.11
2018-02-24T12:57:18.689Z,98941.94
2018-02-24T12:59:46.117Z,98944.11
2018-02-24T13:02:13.563Z,98942.76
2018-02-24T13:04:41.755Z,98939.98
2018-02-24T13:07:09.154Z,98947.65
2018-02-24T13:09:36.569Z,98933.85
2018-02-24T13:12:03.976Z,98936.18
2018-02-24T13:14:31.386Z,98934.17
2018-02-24T13:16:58.880Z,98929.60
2018-02-24T13:19:26.285Z,98935.50
2018-02-24T13:21:53.958Z,98919.66
2018-02-24T13:24:21.348Z,98938.58
2018-02-24T13:26:48.756Z,98936.22
2018-02-24T13:29:16.166Z,98940.20
2018-02-24T13:31:43.577Z,98930.70
2018-02-24T13:34:10.986Z,98931.63
2018-02-24T13:36:38.634Z,98929.76
2018-02-24T13:39:06.041Z,98922.58
2018-02-24T13:41:33.456Z,98936.61
2018-02-24T13:44:00.860Z,98944.09
2018-02-24T13:46:28.279Z,98938.20
2018-02-24T13:48:55.677Z,98944.20
2018-02-24T13:51:23.100Z,98933.00
2018-02-24T13:53:50.501Z,98942.19
2018-02-24T13:56:17.918Z,98938.85
2018-02-24T13:58:45.313Z,98939.05
2018-02-24T14:01:12.731Z,98940.72
2018-02-24T14:03:40.141Z,98940.72
2018-02-24T14:06:07.555Z,98939.19
2018-02-24T14:08:34.954Z,98928.95
2018-02-24T14:11:02.373Z,98949.86
2018-02-24T14:13:29.785Z,98950.47
2018-02-24T14:15:57.197Z,98953.25
2018-02-24T14:18:24.600Z,98941.95
2018-02-24T14:20:52.010Z,98953.27
2018-02-24T14:23:19.419Z,98947.58
2018-02-24T14:25:46.833Z,98951.06
2018-02-24T14:28:15.207Z,98946.91
2018-02-24T14:30:42.629Z,98951.24
2018-02-24T14:33:10.028Z,98952.03
2018-02-24T14:35:37.442Z,98950.11
2018-02-24T14:38:04.836Z,98947.34
2018-02-24T14:40:32.273Z,98946.63
2018-02-24T14:42:59.664Z,98949.31
2018-02-24T14:45:27.069Z,98959.41
2018-02-24T14:47:54.473Z,98952.42
2018-02-24T14:50:21.882Z,98946.48
2018-02-24T14:52:49.292Z,98955.28
2018-02-24T14:55:16.701Z,98951.52
2018-02-24T14:57:44.121Z,98949.17
2018-02-24T15:00:11.521Z,98952.58
2018-02-24T15:02:38.944Z,98960.46
2018-02-24T15:05:06.339Z,98962.44
2018-02-24T15:07:33.764Z,98964.70
2018-02-24T15:10:01.160Z,98966.66
2018-02-24T15:12:28.568Z,98969.31
2018-02-24T15:14:55.973Z,98976.03
2018-02-24T15:17:23.392Z,98970.77
2018-02-24T15:19:50.797Z,98982.73
2018-02-24T15:22:18.219Z,98998.73
2018-02-24T15:24:45.609Z,98986.05
2018-02-24T15:27:13.022Z,98994.02
2018-02-24T15:29:40.412Z,98986.45
2018-02-24T15:32:07.835Z,99002.85
2018-02-24T15:34:35.228Z,98993.80
2018-02-24T15:37:02.666Z,98994.95
2018-02-24T15:39:30.058Z,99001.34
2018-02-24T15:41:57.470Z,99004.15
2018-02-24T15:44:24.869Z,99014.70
2018-02-24T15:46:52.293Z,99002.45
2018-02-24T15:49:19.690Z,99010.98
2018-02-24T15:51:47.106Z,99019.77
2018-02-24T15:54:14.509Z,99006.69
2018-02-24T15:56:41.921Z,99008.94
2018-02-24T15:59:09.329Z,99018.19
2018-02-24T16:01:36.741Z,99011.30
2018-02-24T16:04:04.155Z,99014.30
2018-02-24T16:06:31.564Z,99025.69
2018-02-24T16:08:59.006Z,99026.08
2018-02-24T16:11:26.416Z,99025.84
2018-02-24T16:13:53.820Z,99023.41
2018-02-24T16:16:21.232Z,99025.33
2018-02-24T16:18:48.633Z,99030.62
2018-02-24T16:21:16.037Z,99026.20
2018-02-24T16:23:43.445Z,99035.11
2018-02-24T16:26:10.848Z,99028.08
2018-02-24T16:28:38.257Z,99037.76
2018-02-24T16:31:05.670Z,99048.87
2018-02-24T16:33:33.076Z,99046.98
2018-02-24T16:36:00.489Z,99050.98
2018-02-24T16:38:27.899Z,99055.52
2018-02-24T16:40:55.298Z,99058.62
2018-02-24T16:43:22.705Z,99056.80
2018-02-24T16:45:50.117Z,99059.91
2018-02-24T16:48:17.522Z,99058.41
2018-02-24T16:50:44.923Z,99059.73
2018-02-24T16:53:12.338Z,99065.35
2018-02-24T16:55:39.735Z,99066.92
2018-02-24T16:58:07.139Z,99075.66
2018-02-24T17:00:34.536Z,99072.39
2018-02-24T17:03:01.941Z,99079.73
2018-02-24T17:05:29.340Z,99087.88
2018-02-24T17:07:56.749Z,99084.14
2018-02-24T17:10:24.149Z,99083.08
2018-02-24T17:12:51.537Z,99089.60
2018-02-24T17:15:18.935Z,99102.06
2018-02-24T17:17:46.343Z,99106.17
2018-02-24T17:20:13.783Z,99105.19
2018-02-24T17:22:41.160Z,99117.84
2018-02-24T17:25:08.605Z,99107.11
2018-02-24T17:27:35.973Z,99121.88
2018-02-24T17:30:03.365Z,99125.28
2018-02-24T17:32:31.214Z,99129.30
2018-02-24T17:34:58.588Z,99125.77
2018-02-24T17:37:25.994Z,99138.36
2018-02-24T17:39:53.417Z,99149.66
2018-02-24T17:42:20.830Z,99148.44
2018-02-24T17:44:48.221Z,99153.08
2018-02-24T17:47:16.209Z,99154.98
2018-02-24T17:49:43.617Z,99155.48
2018-02-24T17:52:11.005Z,99160.06
2018-02-24T17:54:38.416Z,99167.98
2018-02-24T17:57:05.813Z,99159.85
2018-02-24T17:59:33.571Z,99169.23
2018-02-24T18:02:00.965Z,99166.20
2018-02-24T18:04:28.364Z,99165.30
2018-02-24T18:06:55.752Z,99169.66
2018-02-24T18:09:23.157Z,99169.61
2018-02-24T18:11:50.554Z,99174.67
2018-02-24T18:14:17.948Z,99177.15
2018-02-24T18:16:45.341Z,99179.50
2018-02-24T18:19:12.734Z,99175.80
2018-02-24T18:21:40.132Z,99171.41
2018-02-24T18:24:07.545Z,99174.08
2018-02-24T18:26:34.945Z,99175.96
2018-02-24T18:29:02.357Z,99179.80
2018-02-24T18:31:30.075Z,99182.88
2018-02-24T18:33:57.476Z,99181.95
2018-02-24T18:36:24.941Z,99183.75
2018-02-24T18:38:52.377Z,99187.75
2018-02-24T18:41:19.745Z,99196.95
2018-02-24T18:43:47.148Z,99189.31
2018-02-24T18:46:14.546Z,99198.95
2018-02-24T18:48:41.944Z,99189.17
2018-02-24T18:51:09.341Z,99201.00
2018-02-24T18:53:36.736Z,99191.08
2018-02-24T18:56:04.133Z,99199.63
2018-02-24T18:58:31.541Z,99194.91
2018-02-24T19:00:58.991Z,99206.72
2018-02-24T19:03:26.395Z,99206.11
2018-02-24T19:05:53.793Z,99199.22
2018-02-24T19:08:21.194Z,99202.09
2018-02-24T19:10:48.611Z,99206.83
2018-02-24T19:13:16.010Z,99197.73
2018-02-24T19:15:43.427Z,99205.39
2018-02-24T19:18:10.822Z,99213.41
2018-02-24T19:20:38.238Z,99216.22
2018-02-24T19:23:05.639Z,99226.05
2018-02-24T19:25:33.058Z,99229.55
2018-02-24T19:28:00.465Z,99220.23
2018-02-24T19:30:27.869Z,99230.13
2018-02-24T19:32:55.271Z,99227.34
2018-02-24T19:35:22.672Z,99216.47
2018-02-24T19:37:50.074Z,99225.78
2018-02-24T19:40:17.476Z,99228.95
2018-02-24T19:42:44.875Z,99217.86
2018-02-24T19:45:12.305Z,99225.13
2018-02-24T19:47:39.688Z,99220.83
2018-02-24T19:50:07.106Z,99234.72
2018-02-24T19:52:34.518Z,99244.13
2018-02-24T19:55:01.916Z,99244.91
2018-02-24T19:57:29.317Z,99238.98
2018-02-24T19:59:57.297Z,99236.19
2018-02-24T20:02:24.706Z,99243.20
2018-02-24T20:04:52.114Z,99237.66
2018-02-24T20:07:19.513Z,99250.90
2018-02-24T20:09:46.920Z,99245.41
2018-02-24T20:12:14.321Z,99242.41
2018-02-24T20:14:41.708Z,99247.83
2018-02-24T20:17:09.125Z,99247.84
2018-02-24T20:19:36.530Z,99257.89
2018-02-24T20:22:03.946Z,99252.56
2018-02-24T20:24:31.341Z,99253.91
2018-02-24T20:26:58.777Z,99260.36
2018-02-24T20:29:26.162Z,99257.75
2018-02-24T20:31:53.577Z,99271.69
2018-02-24T20:34:20.982Z,99266.33
2018-02-24T20:36:48.398Z,99273.80
2018-02-24T20:39:15.807Z,99268.87
2018-02-24T20:41:43.216Z,99276.28
2018-02-24T20:44:10.618Z,99273.41
2018-02-24T20:46:38.037Z,99277.04
2018-02-24T20:49:05.430Z,99284.17
2018-02-24T20:51:32.847Z,99287.95
2018-02-24T20:54:00.244Z,99294.55
2018-02-24T20:56:27.666Z,99284.97
2018-02-24T20:58:55.062Z,99285.82
2018-02-24T21:01:22.468Z,99283.95
2018-02-24T21:03:49.869Z,99279.70
2018-02-24T21:06:17.291Z,99302.92
2018-02-24T21:08:44.693Z,99292.94
2018-02-24T21:11:12.095Z,99290.36
2018-02-24T21:13:39.489Z,99299.06
2018-02-24T21:16:06.902Z,99302.31
2018-02-24T21:18:34.301Z,99301.61
2018-02-24T21:21:01.706Z,99301.80
2018-02-24T21:23:29.930Z,99298.08
2018-02-24T21:25:57.634Z,99301.42
2018-02-24T21:28:25.032Z,99304.95
2018-02-24T21:30:52.450Z,99306.53
2018-02-24T21:33:19.850Z,99308.86
2018-02-24T21:35:47.264Z,99315.27
2018-02-24T21:38:14.658Z,99308.91
2018-02-24T21:40:42.230Z,99307.00
2018-02-24T21:43:09.637Z,99312.21
2018-02-24T21:45:37.033Z,99316.45
2018-02-24T21:48:04.497Z,99322.95
2018-02-24T21:50:32.161Z,99310.80
2018-02-24T21:53:00.461Z,99319.61
2018-02-24T21:55:27.860Z,99321.59
2018-02-24T21:57:55.265Z,99311.67
2018-02-24T22:02:40.054Z,99327.16
2018-02-24T22:05:07.449Z,99319.77
2018-02-24T22:07:34.866Z,99317.88
2018-02-24T22:10:02.264Z,99331.63
2018-02-24T22:12:29.693Z,99331.72
2018-02-24T22:14:57.097Z,99339.88
2018-02-24T22:17:24.512Z,99341.08
2018-02-24T22:19:51.911Z,99337.69
2018-02-24T22:22:19.476Z,99339.96
2018-02-24T22:24:46.872Z,99340.86
2018-02-24T22:27:14.293Z,99338.87
2018-02-24T22:29:41.706Z,99357.39
2018-02-24T22:32:09.124Z,99351.93
2018-02-24T22:34:36.533Z,99355.02
2018-02-24T22:37:03.956Z,99358.92
2018-02-24T22:39:31.365Z,99361.92
2018-02-24T22:41:58.783Z,99363.80
2018-02-24T22:44:26.214Z,99364.62
2018-02-24T22:46:53.627Z,99367.31
2018-02-24T22:49:21.042Z,99359.63
2018-02-24T22:51:48.450Z,99363.36
2018-02-24T22:54:15.858Z,99360.75
2018-02-24T22:56:43.919Z,99364.19
2018-02-24T22:59:11.328Z,99367.42
2018-02-24T23:01:38.743Z,99371.00
2018-02-24T23:04:06.143Z,99376.25
2018-02-24T23:06:33.540Z,99384.55
2018-02-24T23:09:00.951Z,99381.19
2018-02-24T23:11:28.349Z,99381.22
2018-02-24T23:13:55.764Z,99396.30
2018-02-24T23:16:23.214Z,99379.60
2018-02-24T23:18:50.598Z,99383.67
2018-02-24T23:21:17.993Z,99381.13
2018-02-24T23:23:45.405Z,99392.77
2018-02-24T23:26:12.812Z,99382.16
2018-02-24T23:28:40.227Z,99379.21
2018-02-24T23:31:07.682Z,99391.28
2018-02-24T23:33:35.038Z,99378.95
2018-02-24T23:36:02.432Z,99393.19
2018-02-24T23:38:29.863Z,99383.87
2018-02-24T23:40:57.265Z,99397.59
2018-02-24T23:43:25.619Z,99395.11
2018-02-24T23:45:53.018Z,99395.54
2018-02-24T23:48:20.445Z,99400.74
2018-02-24T23:50:47.839Z,99396.58
2018-02-24T23:53:15.244Z,99388.06
2018-02-24T23:55:42.655Z,99387.69
2018-02-24T23:58:10.052Z,99388.20
